West, Mississippi
Current Conditions -  °F | °C
As of 9:53 PM on Wednesday 26 Nov 2014 (Local Time) from KGWO Reporting Station
Clear Clear  
Wind Chill: 34°   Ceiling: Unl
Heat Index: 38°   Visibility: 10mi
Dew Point: 33°   Wind: 5mph
Humidity: 83%   Direction: 190°S
Pressure: 30.21"   Gusts: NA
Location:  33.2°N, 89.78°W
Report Text: KGWO 270353Z AUTO 19004KT 10SM CLR 03/01 A3021 RMK AO2 SLP229 T00330006 TSNO
Loading
Personal Weather Stations






























Interactive Weather Map New forecast layout! Learn more

10-Day Weather Forecast

Advertisements
Track Severe Weather on mobile